Time;durP1;ratioP1;P1;durP2;ratioP2;P2;SDS_P1;SDS_P2;PMS_P1;PMS_P2;Temp;Humidity;BMP_temperature;BMP_pressure;BME280_temperature;BME280_humidity;BME280_pressure;Samples;Min_cycle;Max_cycle;Signal;HPM_P1;HPM_P2
2021/01/26 00:00:08;;;;;;;43.10;24.17;;;1.40;99.90;;;;;;5022211;28;20230;-87
2021/01/26 00:05:18;;;;;;;39.70;22.90;;;1.60;99.90;;;;;;4995254;28;20204;-86
2021/01/26 00:07:45;;;;;;;37.47;23.47;;;1.50;99.90;;;;;;5011604;28;20223;-86
2021/01/26 00:10:12;;;;;;;39.57;23.50;;;1.50;99.90;;;;;;5011705;28;20235;-88
2021/01/26 00:12:39;;;;;;;37.77;23.53;;;1.50;99.90;;;;;;5015784;28;20219;-87
2021/01/26 00:15:07;;;;;;;38.13;24.17;;;1.50;99.90;;;;;;5013019;28;20271;-88
2021/01/26 00:17:33;;;;;;;37.67;23.43;;;1.50;99.90;;;;;;5019073;28;20211;-88
2021/01/26 00:19:59;;;;;;;41.73;23.43;;;1.50;99.90;;;;;;5015534;28;20350;-88
2021/01/26 00:22:26;;;;;;;37.50;23.50;;;1.50;99.90;;;;;;5018535;28;20200;-88
2021/01/26 00:24:52;;;;;;;36.43;22.53;;;1.80;99.90;;;;;;5014696;28;20235;-86
2021/01/26 00:27:18;;;;;;;40.27;22.63;;;1.60;99.90;;;;;;5008497;28;20587;-86
2021/01/26 00:29:45;;;;;;;36.70;22.60;;;1.60;99.90;;;;;;5008481;28;20417;-86
2021/01/26 00:32:12;;;;;;;37.37;22.03;;;1.70;99.90;;;;;;5011547;28;20692;-85
2021/01/26 00:34:38;;;;;;;38.23;22.53;;;1.60;99.90;;;;;;5009487;28;20212;-86
2021/01/26 00:37:04;;;;;;;37.03;22.27;;;1.70;99.90;;;;;;5012717;28;20285;-86
2021/01/26 00:39:30;;;;;;;35.60;21.47;;;1.70;99.90;;;;;;5013614;28;20659;-86
2021/01/26 00:41:57;;;;;;;38.23;21.60;;;1.70;99.90;;;;;;5027420;28;20279;-86
2021/01/26 00:44:23;;;;;;;35.33;22.23;;;1.60;99.90;;;;;;5024818;28;20204;-85
2021/01/26 00:46:50;;;;;;;33.60;20.17;;;1.60;99.90;;;;;;5025975;28;20204;-86
2021/01/26 00:49:16;;;;;;;33.20;19.73;;;1.70;99.90;;;;;;5023704;28;20236;-85
2021/01/26 00:51:43;;;;;;;37.77;21.97;;;1.70;99.90;;;;;;5024980;28;20211;-87
2021/01/26 00:54:09;;;;;;;33.30;20.03;;;1.70;99.90;;;;;;5025253;28;20227;-87
2021/01/26 00:56:36;;;;;;;34.27;19.60;;;1.80;99.90;;;;;;5024559;28;20250;-86
2021/01/26 00:59:02;;;;;;;33.67;19.93;;;1.70;99.90;;;;;;5028894;28;20197;-87
2021/01/26 01:01:28;;;;;;;32.97;19.80;;;1.70;99.90;;;;;;5028488;28;20220;-85
2021/01/26 01:03:55;;;;;;;34.03;20.03;;;1.70;99.90;;;;;;5026097;28;20200;-87
2021/01/26 01:06:22;;;;;;;33.40;18.60;;;1.70;99.90;;;;;;5028559;28;20249;-86
2021/01/26 01:08:48;;;;;;;36.23;20.13;;;1.70;99.90;;;;;;5029720;28;20239;-86
2021/01/26 01:11:14;;;;;;;31.43;17.37;;;1.70;99.90;;;;;;5014663;28;20307;-87
2021/01/26 01:13:41;;;;;;;28.00;16.27;;;1.70;99.90;;;;;;5010002;28;20617;-86
2021/01/26 01:16:07;;;;;;;28.33;15.93;;;1.60;99.90;;;;;;5012410;28;20273;-86
2021/01/26 01:18:33;;;;;;;29.47;15.67;;;1.70;99.90;;;;;;5010362;28;20203;-86
2021/01/26 01:21:01;;;;;;;30.33;17.93;;;1.70;99.90;;;;;;5010172;28;20406;-87
2021/01/26 01:23:27;;;;;;;26.73;15.97;;;1.80;99.90;;;;;;5012136;28;20219;-88
2021/01/26 01:25:59;;;;;;;33.20;17.27;;;1.70;99.90;;;;;;5018356;28;20204;-86
2021/01/26 01:28:26;;;;;;;29.37;17.17;;;1.80;99.90;;;;;;5017227;28;20737;-88
2021/01/26 01:30:54;;;;;;;28.60;17.30;;;1.80;99.90;;;;;;5013344;28;20956;-86
2021/01/26 01:33:20;;;;;;;30.80;17.50;;;1.70;99.90;;;;;;5012335;28;20235;-88
2021/01/26 01:35:46;;;;;;;31.67;17.47;;;1.70;99.90;;;;;;5012891;28;20223;-86
2021/01/26 01:38:14;;;;;;;34.67;19.47;;;1.60;99.90;;;;;;5006303;28;20209;-87
2021/01/26 01:40:40;;;;;;;34.37;18.73;;;1.60;99.90;;;;;;5008325;28;20221;-84
2021/01/26 01:43:07;;;;;;;27.67;17.27;;;1.60;99.90;;;;;;5006719;28;20227;-87
2021/01/26 01:45:33;;;;;;;30.90;17.30;;;1.60;99.90;;;;;;5012133;28;20212;-86
2021/01/26 01:48:04;;;;;;;30.50;17.40;;;1.60;99.90;;;;;;5017983;28;20204;-87
2021/01/26 01:50:34;;;;;;;34.47;17.47;;;1.60;99.90;;;;;;5018388;28;20224;-86
2021/01/26 01:53:05;;;;;;;29.40;15.90;;;1.60;99.90;;;;;;5016111;28;20212;-87
2021/01/26 01:55:36;;;;;;;29.23;17.07;;;1.80;99.90;;;;;;5018098;28;20691;-86
2021/01/26 01:58:07;;;;;;;29.97;17.07;;;1.60;99.90;;;;;;5017116;28;20266;-87
2021/01/26 02:00:35;;;;;;;29.77;16.63;;;1.70;99.90;;;;;;5014113;28;20220;-86
2021/01/26 02:03:09;;;;;;;28.77;16.60;;;1.70;99.90;;;;;;5013960;28;20218;-87
2021/01/26 02:05:35;;;;;;;27.27;14.83;;;1.70;99.90;;;;;;5014554;28;20204;-86
2021/01/26 02:08:02;;;;;;;30.07;17.13;;;1.80;99.90;;;;;;5015520;28;20559;-86
2021/01/26 02:10:28;;;;;;;27.90;16.10;;;1.70;99.90;;;;;;5015613;28;20228;-88
2021/01/26 02:12:55;;;;;;;26.20;15.33;;;1.70;99.90;;;;;;5013800;28;20665;-87
2021/01/26 02:15:21;;;;;;;25.73;15.20;;;1.70;99.90;;;;;;5015080;28;20212;-87
2021/01/26 02:18:15;;;;;;;28.43;16.13;;;1.70;99.90;;;;;;5014654;28;20723;-87
2021/01/26 02:21:23;;;;;;;29.40;15.77;;;1.70;99.90;;;;;;5014299;28;20224;-88
2021/01/26 02:24:31;;;;;;;27.73;15.80;;;1.70;99.90;;;;;;4996148;28;20200;-87
2021/01/26 02:27:34;;;;;;;27.23;15.70;;;1.80;99.90;;;;;;5011842;28;20211;-86
2021/01/26 02:30:30;;;;;;;28.43;15.13;;;1.80;99.90;;;;;;5001682;28;20219;-87
2021/01/26 02:33:35;;;;;;;25.97;14.83;;;1.80;99.90;;;;;;5013774;28;20620;-88
2021/01/26 02:36:40;;;;;;;28.50;15.20;;;1.70;99.90;;;;;;5007340;28;20204;-86
2021/01/26 02:39:26;;;;;;;27.80;14.57;;;1.70;99.90;;;;;;5014108;28;20274;-86
2021/01/26 02:42:02;;;;;;;26.27;14.77;;;1.70;99.90;;;;;;5015300;28;20212;-88
2021/01/26 02:44:33;;;;;;;27.37;14.63;;;1.70;99.90;;;;;;5014841;28;20208;-88
2021/01/26 02:47:13;;;;;;;25.17;14.57;;;1.70;99.90;;;;;;5014611;28;20205;-89
2021/01/26 02:49:49;;;;;;;26.77;16.23;;;1.70;99.90;;;;;;5008733;28;20228;-84
2021/01/26 02:52:24;;;;;;;24.00;14.80;;;1.60;99.90;;;;;;5012000;28;20204;-88
2021/01/26 02:55:01;;;;;;;24.13;14.23;;;1.60;99.90;;;;;;5013908;28;20229;-87
2021/01/26 02:57:35;;;;;;;26.27;15.47;;;1.70;99.90;;;;;;5008012;28;20737;-87
2021/01/26 03:00:09;;;;;;;22.90;14.03;;;1.60;99.90;;;;;;5012074;28;20223;-86
2021/01/26 03:02:39;;;;;;;26.47;15.70;;;1.70;99.90;;;;;;5005307;28;20273;-87
2021/01/26 03:05:09;;;;;;;25.37;15.30;;;1.60;99.90;;;;;;5001069;28;20201;-86
2021/01/26 03:07:38;;;;;;;27.63;16.13;;;1.70;99.90;;;;;;5009047;28;20201;-86
2021/01/26 03:10:09;;;;;;;26.33;15.77;;;1.70;99.90;;;;;;5013094;28;20228;-86
2021/01/26 03:12:39;;;;;;;26.40;15.20;;;1.60;99.90;;;;;;5007577;28;20200;-87
2021/01/26 03:15:10;;;;;;;26.57;14.70;;;1.60;99.90;;;;;;5011161;28;20208;-87
2021/01/26 03:17:40;;;;;;;26.53;15.80;;;1.70;99.90;;;;;;5006647;28;20208;-87
2021/01/26 03:20:12;;;;;;;23.27;14.77;;;1.70;99.90;;;;;;5011449;28;20231;-86
2021/01/26 03:22:40;;;;;;;26.27;14.83;;;1.70;99.90;;;;;;5012683;28;20205;-87
2021/01/26 03:25:09;;;;;;;26.70;15.97;;;1.70;99.90;;;;;;5005436;28;20201;-87
2021/01/26 03:27:40;;;;;;;29.30;16.17;;;1.70;99.90;;;;;;5013011;28;20265;-86
2021/01/26 03:30:10;;;;;;;28.37;15.60;;;1.70;99.90;;;;;;5010744;28;21301;-86
2021/01/26 03:32:43;;;;;;;27.33;16.67;;;1.60;99.90;;;;;;5011346;28;22118;-85
2021/01/26 03:35:10;;;;;;;27.23;16.53;;;1.60;99.90;;;;;;5007249;28;20236;-87
2021/01/26 03:37:39;;;;;;;27.83;16.20;;;1.60;99.90;;;;;;5007457;28;20204;-87
2021/01/26 03:40:08;;;;;;;26.03;16.00;;;1.60;99.90;;;;;;5012724;28;20220;-86
2021/01/26 03:42:35;;;;;;;26.77;15.47;;;1.60;99.90;;;;;;5014192;28;20208;-87
2021/01/26 03:45:03;;;;;;;28.43;17.60;;;1.50;99.90;;;;;;5009695;28;20202;-86
2021/01/26 03:47:35;;;;;;;29.23;17.30;;;1.60;99.90;;;;;;5005894;28;20200;-87
2021/01/26 03:50:15;;;;;;;31.80;21.87;;;1.40;99.90;;;;;;5013652;28;20243;-87
2021/01/26 03:53:01;;;;;;;30.60;19.60;;;1.40;99.90;;;;;;5013135;28;20204;-87
2021/01/26 03:55:30;;;;;;;36.07;20.67;;;1.40;99.90;;;;;;5012572;28;20212;-87
2021/01/26 03:58:04;;;;;;;29.20;19.30;;;1.40;99.90;;;;;;5012625;28;20212;-88
2021/01/26 04:00:35;;;;;;;32.20;20.57;;;1.40;99.90;;;;;;5008986;28;20228;-86
2021/01/26 04:03:30;;;;;;;27.80;16.93;;;1.30;99.90;;;;;;5011811;28;20223;-85
2021/01/26 04:05:59;;;;;;;27.40;16.30;;;1.30;99.90;;;;;;5007028;28;20211;-85
2021/01/26 04:08:34;;;;;;;30.13;18.83;;;1.40;99.90;;;;;;5009621;28;20213;-87
2021/01/26 04:11:09;;;;;;;30.13;19.93;;;1.20;99.90;;;;;;5000952;28;20231;-85
2021/01/26 04:13:42;;;;;;;31.60;19.27;;;1.20;99.90;;;;;;5008245;28;20568;-85
2021/01/26 04:16:10;;;;;;;30.13;19.03;;;1.10;99.90;;;;;;5014183;28;20212;-84
2021/01/26 04:18:41;;;;;;;32.47;20.43;;;1.10;99.90;;;;;;5010974;28;20208;-84
2021/01/26 04:21:10;;;;;;;29.70;19.60;;;1.10;99.90;;;;;;5002231;28;20216;-84
2021/01/26 04:23:37;;;;;;;30.47;19.87;;;1.10;99.90;;;;;;5013755;28;20212;-87
2021/01/26 04:26:07;;;;;;;27.17;18.20;;;1.10;99.90;;;;;;5013422;28;20246;-84
2021/01/26 04:28:37;;;;;;;25.40;15.17;;;1.10;99.90;;;;;;5013478;28;20204;-86
2021/01/26 04:31:04;;;;;;;26.67;15.33;;;1.10;99.90;;;;;;5013137;28;20767;-85
2021/01/26 04:33:30;;;;;;;27.07;17.70;;;1.10;99.90;;;;;;5013739;28;20309;-84
2021/01/26 04:35:57;;;;;;;31.63;21.17;;;1.10;99.90;;;;;;5013098;28;20211;-86
2021/01/26 04:38:23;;;;;;;29.03;18.47;;;1.10;99.90;;;;;;5012744;28;20331;-84
2021/01/26 04:40:53;;;;;;;26.97;17.73;;;1.20;99.90;;;;;;5021198;28;20303;-85
2021/01/26 04:43:29;;;;;;;29.03;17.43;;;1.20;99.90;;;;;;5013033;28;20208;-86
2021/01/26 04:46:11;;;;;;;29.20;18.33;;;1.20;99.90;;;;;;5013065;28;20238;-86
2021/01/26 04:48:45;;;;;;;29.00;18.43;;;1.20;99.90;;;;;;5010869;28;20250;-86
2021/01/26 04:51:18;;;;;;;32.40;21.27;;;1.20;99.90;;;;;;5014341;28;20235;-85
2021/01/26 04:54:02;;;;;;;27.47;16.77;;;1.20;99.90;;;;;;5023336;28;20254;-86
2021/01/26 04:56:36;;;;;;;28.97;18.37;;;1.20;99.90;;;;;;5012779;28;20742;-89
2021/01/26 04:59:26;;;;;;;29.93;20.07;;;1.30;99.90;;;;;;5013428;28;20723;-86
2021/01/26 05:02:06;;;;;;;31.67;20.83;;;1.30;99.90;;;;;;5012549;28;20629;-84
2021/01/26 05:04:38;;;;;;;30.70;20.47;;;1.20;99.90;;;;;;5010524;28;20196;-85
2021/01/26 05:07:09;;;;;;;26.77;17.07;;;1.30;99.90;;;;;;5011957;28;20192;-85
2021/01/26 05:09:42;;;;;;;28.70;18.70;;;1.30;99.90;;;;;;5011958;28;20239;-86
2021/01/26 05:12:11;;;;;;;24.63;15.87;;;1.30;99.90;;;;;;5010181;28;20201;-85
2021/01/26 05:14:44;;;;;;;24.93;15.03;;;1.30;99.90;;;;;;5011496;28;20201;-86
2021/01/26 05:17:17;;;;;;;24.53;14.77;;;1.30;99.90;;;;;;5007648;28;20212;-86
2021/01/26 05:19:47;;;;;;;25.07;13.77;;;1.40;99.90;;;;;;5007090;28;20574;-86
2021/01/26 05:22:19;;;;;;;23.93;14.00;;;1.40;99.90;;;;;;5011980;28;20207;-86
2021/01/26 05:24:50;;;;;;;26.37;16.10;;;1.40;99.90;;;;;;5013897;28;20665;-85
2021/01/26 05:27:17;;;;;;;21.30;13.10;;;1.40;99.90;;;;;;5011739;28;20254;-84
2021/01/26 05:29:44;;;;;;;21.40;12.93;;;1.40;99.90;;;;;;5010603;28;20697;-86
2021/01/26 05:32:21;;;;;;;20.73;12.70;;;1.50;99.90;;;;;;5015832;28;20621;-85
2021/01/26 05:34:49;;;;;;;22.50;13.17;;;1.40;99.90;;;;;;5013388;28;20687;-85
2021/01/26 05:37:15;;;;;;;23.40;13.20;;;1.40;99.90;;;;;;5013533;28;20212;-84
2021/01/26 05:40:22;;;;;;;22.13;11.93;;;1.40;99.90;;;;;;5008862;28;20228;-86
2021/01/26 05:42:53;;;;;;;18.27;11.60;;;1.50;99.90;;;;;;5007893;28;20246;-86
2021/01/26 05:45:24;;;;;;;19.43;11.43;;;1.50;99.90;;;;;;5015263;28;20208;-84
2021/01/26 05:48:09;;;;;;;19.40;10.90;;;1.50;99.90;;;;;;5011745;28;20210;-86
2021/01/26 05:50:37;;;;;;;19.33;10.60;;;1.60;99.90;;;;;;5010160;28;20723;-86
2021/01/26 05:53:18;;;;;;;19.73;11.30;;;1.60;99.90;;;;;;5014657;28;20607;-85
2021/01/26 05:55:57;;;;;;;18.60;10.80;;;1.60;99.90;;;;;;5015191;28;20267;-85
2021/01/26 05:58:29;;;;;;;19.10;11.03;;;1.60;99.90;;;;;;5014411;28;20256;-85
2021/01/26 06:01:01;;;;;;;20.07;10.57;;;1.40;99.90;;;;;;5017716;28;20228;-86
2021/01/26 06:03:29;;;;;;;19.73;11.50;;;1.50;99.90;;;;;;5020830;28;20676;-88
2021/01/26 06:06:03;;;;;;;19.50;11.80;;;1.50;99.90;;;;;;5016109;28;20283;-85
2021/01/26 06:08:35;;;;;;;18.30;10.37;;;1.70;99.90;;;;;;5013714;28;20208;-84
2021/01/26 06:11:18;;;;;;;21.47;11.93;;;1.50;99.90;;;;;;5014543;28;20224;-84
2021/01/26 06:13:47;;;;;;;19.63;11.60;;;1.50;99.90;;;;;;5014677;28;21086;-86
2021/01/26 06:16:19;;;;;;;19.03;10.80;;;1.50;99.90;;;;;;5014469;28;20211;-84
2021/01/26 06:18:59;;;;;;;19.53;11.30;;;1.50;99.90;;;;;;5005907;28;20680;-85
2021/01/26 06:21:31;;;;;;;19.87;11.27;;;1.60;99.90;;;;;;5010058;28;20228;-84
2021/01/26 06:24:22;;;;;;;20.57;11.27;;;1.60;99.90;;;;;;5008239;28;20205;-86
2021/01/26 06:27:06;;;;;;;19.00;10.93;;;1.50;99.90;;;;;;5010373;28;20204;-83
2021/01/26 06:29:40;;;;;;;21.07;12.17;;;1.60;99.90;;;;;;5010150;28;20232;-85
2021/01/26 06:32:20;;;;;;;20.10;10.73;;;1.50;99.90;;;;;;5012615;28;20203;-84
2021/01/26 06:34:59;;;;;;;18.10;10.27;;;1.60;99.90;;;;;;5010126;28;20218;-84
2021/01/26 06:37:42;;;;;;;20.50;11.43;;;1.60;99.90;;;;;;5013742;28;20204;-85
2021/01/26 06:40:26;;;;;;;19.50;10.77;;;1.60;99.90;;;;;;5008014;28;20306;-88
2021/01/26 06:43:12;;;;;;;19.13;11.30;;;1.60;99.90;;;;;;5012775;28;20212;-85
2021/01/26 06:46:00;;;;;;;21.23;11.57;;;1.90;99.90;;;;;;5010278;28;20208;-86
2021/01/26 06:48:49;;;;;;;18.67;11.03;;;1.60;99.90;;;;;;4997510;28;20291;-85
2021/01/26 06:51:31;;;;;;;20.43;11.07;;;1.60;99.90;;;;;;5010471;28;20286;-85
2021/01/26 06:54:12;;;;;;;19.37;11.03;;;1.60;99.90;;;;;;5012541;28;20608;-88
2021/01/26 06:57:09;;;;;;;18.97;10.87;;;1.80;99.90;;;;;;5011235;28;20227;-85
2021/01/26 07:00:12;;;;;;;17.27;10.30;;;1.60;99.90;;;;;;5008576;28;20224;-85
2021/01/26 07:03:15;;;;;;;19.43;10.97;;;1.70;99.90;;;;;;5007507;28;20204;-86
2021/01/26 07:06:04;;;;;;;18.10;10.20;;;1.70;99.90;;;;;;5013819;28;20254;-85
2021/01/26 07:08:50;;;;;;;19.33;10.63;;;1.70;99.90;;;;;;5011538;28;20204;-85
2021/01/26 07:11:47;;;;;;;18.70;10.93;;;1.70;99.90;;;;;;5014063;28;20232;-87
2021/01/26 07:14:31;;;;;;;19.33;11.77;;;1.70;99.90;;;;;;5011957;28;20200;-86
2021/01/26 07:17:07;;;;;;;19.53;11.00;;;1.70;99.90;;;;;;5013385;28;20228;-85
2021/01/26 07:19:55;;;;;;;19.10;10.83;;;1.70;99.90;;;;;;5011873;28;20228;-85
2021/01/26 07:22:55;;;;;;;21.57;12.70;;;2.00;99.90;;;;;;5010973;28;20239;-85
2021/01/26 07:25:29;;;;;;;19.70;12.03;;;1.80;99.90;;;;;;5009701;28;20291;-85
2021/01/26 07:28:27;;;;;;;21.17;12.87;;;1.70;99.90;;;;;;5011184;28;20207;-85
2021/01/26 07:31:00;;;;;;;23.03;12.87;;;1.70;99.90;;;;;;5010957;28;20220;-85
2021/01/26 07:33:37;;;;;;;24.37;13.70;;;1.70;99.90;;;;;;5011360;28;20668;-85
2021/01/26 07:36:12;;;;;;;25.47;13.73;;;1.70;99.90;;;;;;5006090;28;20200;-85
2021/01/26 07:38:47;;;;;;;25.93;14.77;;;1.70;99.90;;;;;;4999040;28;20735;-86
2021/01/26 07:41:26;;;;;;;29.00;16.27;;;1.70;99.90;;;;;;5007078;28;20239;-85
2021/01/26 07:44:00;;;;;;;29.63;16.43;;;2.10;99.90;;;;;;5013388;28;20200;-85
2021/01/26 07:46:34;;;;;;;27.60;15.67;;;1.80;99.90;;;;;;5009649;28;20626;-85
2021/01/26 07:49:09;;;;;;;30.13;16.63;;;1.80;99.90;;;;;;5012902;28;20211;-85
2021/01/26 07:51:42;;;;;;;30.20;17.30;;;1.80;99.90;;;;;;5011019;28;20223;-85
2021/01/26 07:54:21;;;;;;;31.07;16.37;;;1.80;99.90;;;;;;5011852;28;20200;-85
2021/01/26 07:56:48;;;;;;;30.77;17.17;;;1.90;99.90;;;;;;5009388;28;20215;-87
2021/01/26 07:59:32;;;;;;;32.20;18.07;;;1.80;99.90;;;;;;5012793;28;20204;-85
2021/01/26 08:02:00;;;;;;;34.27;18.03;;;1.80;99.90;;;;;;5014271;28;20204;-86
2021/01/26 08:04:29;;;;;;;31.50;16.83;;;1.80;99.90;;;;;;5016735;28;20211;-87
2021/01/26 08:07:09;;;;;;;31.90;17.30;;;1.80;99.90;;;;;;5012470;28;20713;-86
2021/01/26 08:09:51;;;;;;;30.43;17.07;;;2.00;99.90;;;;;;5011911;28;20279;-85
2021/01/26 08:12:37;;;;;;;35.17;19.33;;;1.80;99.90;;;;;;5011027;28;20712;-86
2021/01/26 08:15:19;;;;;;;33.67;17.20;;;1.90;99.90;;;;;;5009565;28;20204;-85
2021/01/26 08:18:01;;;;;;;37.00;19.50;;;1.90;99.90;;;;;;5010551;28;20330;-85
2021/01/26 08:20:52;;;;;;;40.13;20.03;;;1.80;99.90;;;;;;5011384;28;20635;-84
2021/01/26 08:23:33;;;;;;;37.17;19.40;;;1.80;99.90;;;;;;5008686;28;20711;-85
2021/01/26 08:26:22;;;;;;;38.27;19.40;;;1.80;99.90;;;;;;5011616;28;20200;-85
2021/01/26 08:28:52;;;;;;;39.03;20.57;;;1.80;99.90;;;;;;5010169;28;20211;-85
2021/01/26 08:31:33;;;;;;;41.77;20.90;;;1.80;99.90;;;;;;5008227;28;20228;-84
2021/01/26 08:34:38;;;;;;;40.80;21.00;;;1.90;99.90;;;;;;5006348;28;20207;-84
2021/01/26 08:37:27;;;;;;;39.30;20.23;;;1.90;99.90;;;;;;5010806;28;20230;-86
2021/01/26 08:40:05;;;;;;;40.27;20.30;;;2.00;99.90;;;;;;5009296;28;20239;-84
2021/01/26 08:42:57;;;;;;;41.07;19.53;;;2.00;99.90;;;;;;5011447;28;20677;-84
2021/01/26 08:45:58;;;;;;;38.13;19.63;;;1.90;99.90;;;;;;5007258;28;20212;-85
2021/01/26 08:48:33;;;;;;;41.23;19.73;;;1.90;99.90;;;;;;5005775;28;20567;-85
2021/01/26 08:51:13;;;;;;;39.07;19.90;;;2.00;99.90;;;;;;5011530;28;20269;-85
2021/01/26 08:53:45;;;;;;;34.87;17.77;;;1.90;99.90;;;;;;5011869;28;20204;-84
2021/01/26 08:56:37;;;;;;;36.30;18.63;;;2.00;99.90;;;;;;5012064;28;20671;-84
2021/01/26 08:59:09;;;;;;;36.10;19.03;;;1.90;99.90;;;;;;5009284;28;20200;-85
2021/01/26 09:02:01;;;;;;;35.43;18.17;;;2.00;99.90;;;;;;5015694;28;20219;-85
2021/01/26 09:04:49;;;;;;;36.77;17.80;;;1.90;99.90;;;;;;5016046;28;20331;-84
2021/01/26 09:07:50;;;;;;;35.00;16.70;;;1.90;99.90;;;;;;5009572;28;20212;-86
2021/01/26 09:10:29;;;;;;;33.10;16.77;;;2.00;99.90;;;;;;5008857;28;20242;-84
2021/01/26 09:13:07;;;;;;;38.13;17.10;;;1.90;99.90;;;;;;5013530;28;20211;-83
2021/01/26 09:15:50;;;;;;;35.33;18.37;;;1.90;99.90;;;;;;5011391;28;20201;-85
2021/01/26 09:18:20;;;;;;;37.30;19.17;;;1.90;99.90;;;;;;5016608;28;20308;-84
2021/01/26 09:20:49;;;;;;;41.27;20.53;;;2.00;99.90;;;;;;5016199;28;20358;-85
2021/01/26 09:23:25;;;;;;;40.83;19.80;;;2.40;99.90;;;;;;5014887;28;20279;-88
2021/01/26 09:25:52;;;;;;;37.97;19.20;;;2.40;99.90;;;;;;5016107;28;20200;-87
2021/01/26 09:28:27;;;;;;;43.30;20.47;;;1.90;99.90;;;;;;5010701;28;20208;-82
2021/01/26 09:31:02;;;;;;;42.27;20.23;;;2.00;99.90;;;;;;5002896;28;20659;-84
2021/01/26 09:33:33;;;;;;;43.83;21.70;;;2.20;99.90;;;;;;4996873;28;20688;-84
2021/01/26 09:36:11;;;;;;;46.93;24.13;;;2.10;99.90;;;;;;4998207;28;20201;-86
2021/01/26 09:38:41;;;;;;;45.40;22.70;;;2.10;99.90;;;;;;5003979;28;20216;-84
2021/01/26 09:41:20;;;;;;;46.20;22.30;;;2.10;99.90;;;;;;5007349;28;20231;-85
2021/01/26 09:44:00;;;;;;;44.80;21.83;;;2.10;99.90;;;;;;5005873;28;20268;-87
2021/01/26 09:46:28;;;;;;;45.73;22.80;;;2.50;99.90;;;;;;5003262;28;20212;-86
2021/01/26 09:49:07;;;;;;;45.97;22.50;;;2.10;99.90;;;;;;4999135;28;20264;-82
2021/01/26 09:51:40;;;;;;;42.57;21.60;;;2.20;99.90;;;;;;4998314;28;20229;-84
2021/01/26 09:54:15;;;;;;;49.70;22.67;;;2.10;99.90;;;;;;5000872;28;20407;-84
2021/01/26 09:56:47;;;;;;;47.23;22.43;;;2.10;99.90;;;;;;4997821;28;20704;-83
2021/01/26 09:59:20;;;;;;;50.23;25.00;;;2.10;99.90;;;;;;4997356;28;20232;-83
2021/01/26 10:02:00;;;;;;;43.73;21.60;;;2.10;99.90;;;;;;5008003;28;20192;-82
2021/01/26 10:04:32;;;;;;;49.57;22.93;;;2.20;99.90;;;;;;5010401;28;20212;-84
2021/01/26 10:07:04;;;;;;;48.27;23.23;;;2.20;99.90;;;;;;5010655;28;20211;-86
2021/01/26 10:09:37;;;;;;;48.67;22.57;;;2.20;99.90;;;;;;5010128;28;20328;-86
2021/01/26 10:12:34;;;;;;;51.43;24.00;;;2.20;99.90;;;;;;5007822;28;20588;-82
2021/01/26 10:15:19;;;;;;;50.07;23.87;;;2.20;99.90;;;;;;5008088;28;20278;-82
2021/01/26 10:18:03;;;;;;;55.13;26.30;;;2.20;99.90;;;;;;5003941;28;20295;-83
2021/01/26 10:20:37;;;;;;;52.23;24.27;;;2.10;99.90;;;;;;5008118;28;20224;-85
2021/01/26 10:23:17;;;;;;;54.23;25.97;;;2.10;99.90;;;;;;5011095;28;20614;-85
2021/01/26 10:25:47;;;;;;;57.47;28.13;;;2.20;99.90;;;;;;5011525;28;20243;-85
2021/01/26 10:28:19;;;;;;;53.07;25.63;;;2.40;99.90;;;;;;5008590;28;20208;-86
2021/01/26 10:30:49;;;;;;;58.23;26.23;;;2.20;99.90;;;;;;5006232;28;20235;-84
2021/01/26 10:33:36;;;;;;;54.67;25.70;;;2.30;99.90;;;;;;5009414;28;20219;-86
2021/01/26 10:36:26;;;;;;;53.80;26.43;;;2.30;99.90;;;;;;5004213;28;20210;-86
2021/01/26 10:38:55;;;;;;;52.53;26.37;;;2.20;99.90;;;;;;4998585;28;20205;-83
2021/01/26 10:41:26;;;;;;;51.87;24.43;;;2.60;99.90;;;;;;5002271;28;20224;-87
2021/01/26 10:44:09;;;;;;;50.53;25.17;;;2.30;99.90;;;;;;5000815;28;20210;-84
2021/01/26 10:46:44;;;;;;;54.47;26.10;;;2.70;99.90;;;;;;4998908;28;20228;-84
2021/01/26 10:49:20;;;;;;;56.67;26.90;;;2.20;99.90;;;;;;4998992;28;20748;-83
2021/01/26 10:51:52;;;;;;;54.10;26.00;;;2.20;99.90;;;;;;4993769;28;20283;-85
2021/01/26 10:54:23;;;;;;;60.20;26.20;;;2.30;99.90;;;;;;5001212;28;20214;-84
2021/01/26 10:56:50;;;;;;;51.70;26.40;;;2.40;99.90;;;;;;5007171;28;20196;-85
2021/01/26 10:59:19;;;;;;;53.67;24.37;;;2.30;99.90;;;;;;5009877;28;20208;-83
2021/01/26 11:01:46;;;;;;;53.17;25.80;;;2.30;99.90;;;;;;5007940;28;20196;-83
2021/01/26 11:04:14;;;;;;;48.27;24.67;;;2.30;99.90;;;;;;5008329;28;20212;-87
2021/01/26 11:06:44;;;;;;;47.03;24.03;;;2.20;99.90;;;;;;5007235;28;20212;-83
2021/01/26 11:09:14;;;;;;;49.83;23.70;;;2.30;99.90;;;;;;5007407;28;20294;-83
2021/01/26 11:11:44;;;;;;;46.50;23.53;;;2.30;99.90;;;;;;5007433;28;20224;-84
2021/01/26 11:14:13;;;;;;;49.63;24.53;;;2.40;99.90;;;;;;5008857;28;20238;-84
2021/01/26 11:16:39;;;;;;;47.97;23.50;;;2.40;99.90;;;;;;5007368;28;20216;-83
2021/01/26 11:19:09;;;;;;;43.13;21.93;;;2.30;99.90;;;;;;5007673;28;20219;-84
2021/01/26 11:21:38;;;;;;;45.87;22.50;;;2.30;99.90;;;;;;5009589;28;20204;-86
2021/01/26 11:24:10;;;;;;;49.27;23.60;;;2.30;99.90;;;;;;5010466;28;20223;-86
2021/01/26 11:26:39;;;;;;;50.10;23.43;;;2.30;99.90;;;;;;5006210;28;20247;-84
2021/01/26 11:29:08;;;;;;;48.97;25.03;;;2.30;99.90;;;;;;5004166;28;20648;-83
2021/01/26 11:31:41;;;;;;;49.70;24.20;;;2.40;99.90;;;;;;5005008;28;20221;-86
2021/01/26 11:34:08;;;;;;;50.43;23.97;;;2.30;99.90;;;;;;5006567;28;20215;-86
2021/01/26 11:36:43;;;;;;;55.50;26.80;;;2.30;99.90;;;;;;5010401;28;20209;-83
2021/01/26 11:39:20;;;;;;;51.23;25.20;;;2.30;99.90;;;;;;5012062;28;20203;-85
2021/01/26 11:41:47;;;;;;;55.13;27.03;;;2.30;99.90;;;;;;5014310;28;20681;-86
2021/01/26 11:44:18;;;;;;;54.67;25.63;;;2.20;99.90;;;;;;5013884;28;20211;-82
2021/01/26 11:47:08;;;;;;;51.90;24.03;;;2.50;99.90;;;;;;5010061;28;20743;-85
2021/01/26 11:49:38;;;;;;;52.20;24.23;;;2.30;99.90;;;;;;5003452;28;20246;-85
2021/01/26 11:52:07;;;;;;;54.73;24.63;;;2.70;99.90;;;;;;5002554;28;20696;-85
2021/01/26 11:54:33;;;;;;;56.83;27.77;;;2.30;99.90;;;;;;5004486;28;20220;-84
2021/01/26 11:57:03;;;;;;;60.40;28.47;;;2.30;99.90;;;;;;5009148;28;20200;-83
2021/01/26 11:59:37;;;;;;;53.97;25.57;;;2.40;99.90;;;;;;5008660;28;20311;-82
2021/01/26 12:02:07;;;;;;;54.67;26.83;;;2.40;99.90;;;;;;5013931;28;20214;-87
2021/01/26 12:04:33;;;;;;;55.83;27.10;;;2.40;99.90;;;;;;5010312;28;20306;-87
2021/01/26 12:07:03;;;;;;;55.53;26.00;;;2.60;99.90;;;;;;4999728;28;20207;-83
2021/01/26 12:09:31;;;;;;;55.23;25.67;;;2.50;99.90;;;;;;5008614;28;20307;-86
2021/01/26 12:11:57;;;;;;;56.53;25.93;;;2.50;99.90;;;;;;5004485;28;20228;-84
2021/01/26 12:14:29;;;;;;;54.93;27.53;;;2.50;99.90;;;;;;5004032;28;20215;-82
2021/01/26 12:16:58;;;;;;;55.80;28.83;;;2.50;99.90;;;;;;5006699;28;20565;-83
2021/01/26 12:19:25;;;;;;;51.33;24.93;;;2.40;99.90;;;;;;5008308;28;20204;-84
2021/01/26 12:21:51;;;;;;;50.50;25.13;;;2.50;99.90;;;;;;5005554;28;20689;-84
2021/01/26 12:24:21;;;;;;;52.33;26.20;;;2.50;99.90;;;;;;5006889;28;20303;-83
2021/01/26 12:26:47;;;;;;;59.70;28.43;;;2.60;99.90;;;;;;5006272;28;20211;-83
2021/01/26 12:29:17;;;;;;;56.77;28.80;;;2.40;99.90;;;;;;4995512;28;20218;-81
2021/01/26 12:31:45;;;;;;;58.33;27.87;;;2.50;99.90;;;;;;5002335;28;20224;-82
2021/01/26 12:34:17;;;;;;;56.10;26.70;;;2.50;99.90;;;;;;5004375;28;20216;-87
2021/01/26 12:36:46;;;;;;;57.87;27.23;;;2.40;99.90;;;;;;5008435;28;20215;-81
2021/01/26 12:39:14;;;;;;;52.67;25.87;;;2.70;99.90;;;;;;5004544;28;20685;-82
2021/01/26 12:41:41;;;;;;;54.60;26.57;;;2.40;99.90;;;;;;5007367;28;20687;-85
2021/01/26 12:44:16;;;;;;;52.83;25.60;;;2.60;99.90;;;;;;5009220;28;20215;-83
2021/01/26 12:46:54;;;;;;;49.43;25.00;;;2.50;99.90;;;;;;5009360;28;20290;-83
2021/01/26 12:49:21;;;;;;;49.77;25.30;;;2.50;99.90;;;;;;5007806;28;20570;-86
2021/01/26 12:51:51;;;;;;;54.57;27.63;;;2.60;99.90;;;;;;5003636;28;20228;-82
2021/01/26 12:54:21;;;;;;;48.87;25.23;;;2.60;99.90;;;;;;5007759;28;20238;-88
2021/01/26 12:56:57;;;;;;;49.53;25.17;;;2.70;99.90;;;;;;5008699;28;20200;-84
2021/01/26 12:59:26;;;;;;;47.67;24.93;;;2.70;99.90;;;;;;5002841;28;20677;-85
2021/01/26 13:02:04;;;;;;;53.07;27.07;;;2.70;99.90;;;;;;5005509;28;20666;-86
2021/01/26 13:04:36;;;;;;;47.97;25.13;;;2.90;99.90;;;;;;5004794;28;20200;-89
2021/01/26 13:07:19;;;;;;;50.93;24.93;;;3.00;99.90;;;;;;5007731;28;20216;-86
2021/01/26 13:09:45;;;;;;;50.73;25.70;;;3.30;99.90;;;;;;5006358;28;20251;-85
2021/01/26 13:12:11;;;;;;;47.27;25.50;;;3.30;99.90;;;;;;5004261;28;20224;-86
2021/01/26 13:14:38;;;;;;;48.50;24.63;;;3.30;99.90;;;;;;4999310;28;20208;-86